Time;durP1;ratioP1;P1;durP2;ratioP2;P2;SDS_P1;SDS_P2;PMS_P1;PMS_P2;Temp;Humidity;BMP_temperature;BMP_pressure;BME280_temperature;BME280_humidity;BME280_pressure;Samples;Min_cycle;Max_cycle;Signal;HPM_P1;HPM_P2
2022/04/23 00:02:03;;;;;;;39.17;35.10;;;11.80;99.90;;;;;;5028879;28;20251;-75
2022/04/23 00:04:30;;;;;;;34.25;30.58;;;11.70;99.90;;;;;;5024651;28;20215;-77
2022/04/23 00:06:57;;;;;;;28.92;26.00;;;11.60;99.90;;;;;;5027190;28;20234;-74
2022/04/23 00:09:24;;;;;;;27.15;24.33;;;11.70;99.90;;;;;;5027624;28;20227;-76
2022/04/23 00:11:52;;;;;;;40.05;30.02;;;11.70;99.90;;;;;;5028782;28;20378;-75
2022/04/23 00:14:21;;;;;;;27.73;24.90;;;11.70;99.90;;;;;;5027203;28;20199;-75
2022/04/23 00:16:49;;;;;;;33.20;28.67;;;11.70;99.90;;;;;;5027672;28;20206;-74
2022/04/23 00:19:16;;;;;;;33.85;30.23;;;11.70;99.90;;;;;;5025199;28;20283;-74
2022/04/23 00:21:43;;;;;;;28.10;25.25;;;11.70;99.90;;;;;;5031747;28;20242;-74
2022/04/23 00:24:10;;;;;;;27.88;24.98;;;11.70;99.90;;;;;;5025773;28;20574;-74
2022/04/23 00:26:37;;;;;;;28.70;25.63;;;11.70;99.90;;;;;;5028218;28;20223;-74
2022/04/23 00:29:04;;;;;;;28.65;25.65;;;11.70;99.90;;;;;;5032740;28;20202;-75
2022/04/23 00:31:33;;;;;;;26.35;23.65;;;11.60;99.90;;;;;;5026979;28;20252;-76
2022/04/23 00:34:00;;;;;;;21.75;19.55;;;11.60;99.90;;;;;;5026073;28;20231;-75
2022/04/23 00:36:28;;;;;;;24.40;21.88;;;11.70;99.90;;;;;;5029823;28;20195;-74
2022/04/23 00:38:55;;;;;;;24.65;22.05;;;11.70;99.90;;;;;;5031481;28;20246;-80
2022/04/23 00:44:07;;;;;;;33.40;29.75;;;11.70;99.90;;;;;;5030138;28;20218;-75
2022/04/23 00:46:36;;;;;;;49.90;44.25;;;11.70;99.90;;;;;;5031025;28;20223;-74
2022/04/23 00:49:05;;;;;;;36.45;32.50;;;11.70;99.90;;;;;;5031123;28;20219;-77
2022/04/23 00:51:34;;;;;;;32.25;28.95;;;11.60;99.90;;;;;;5029278;28;20231;-73
2022/04/23 00:54:07;;;;;;;28.95;25.95;;;11.60;99.90;;;;;;5030674;28;20765;-76
2022/04/23 00:56:35;;;;;;;25.77;23.08;;;11.60;99.90;;;;;;5026377;28;20203;-76
2022/04/23 00:59:05;;;;;;;23.60;21.20;;;11.60;99.90;;;;;;5029448;28;20219;-75
2022/04/23 01:01:32;;;;;;;23.15;20.73;;;11.60;99.90;;;;;;5029170;28;20247;-79
2022/04/23 01:04:02;;;;;;;25.88;23.17;;;11.70;99.90;;;;;;5030921;28;20227;-77
2022/04/23 01:06:34;;;;;;;26.08;23.40;;;11.70;99.90;;;;;;5029774;28;20235;-78
2022/04/23 01:09:02;;;;;;;31.90;28.33;;;11.60;99.90;;;;;;5031604;28;20262;-75
2022/04/23 01:11:30;;;;;;;35.92;32.15;;;11.60;99.90;;;;;;5033026;28;20228;-74
2022/04/23 01:13:57;;;;;;;30.98;27.67;;;11.60;99.90;;;;;;5025257;28;20219;-74
2022/04/23 01:16:24;;;;;;;35.03;30.38;;;11.60;99.90;;;;;;5029359;28;20203;-76
2022/04/23 01:18:51;;;;;;;29.15;26.25;;;11.60;99.90;;;;;;5032166;28;20234;-75
2022/04/23 01:21:20;;;;;;;27.75;24.50;;;11.60;99.90;;;;;;5031013;28;20224;-75
2022/04/23 01:23:48;;;;;;;29.10;26.00;;;11.60;99.90;;;;;;5030709;28;20216;-74
2022/04/23 01:26:25;;;;;;;27.98;25.08;;;11.60;99.90;;;;;;5030708;28;20307;-74
2022/04/23 01:28:52;;;;;;;30.13;26.92;;;11.60;99.90;;;;;;5026167;28;20294;-74
2022/04/23 01:31:19;;;;;;;28.70;25.75;;;11.60;99.90;;;;;;5029447;28;20219;-74
2022/04/23 01:33:46;;;;;;;27.25;24.45;;;11.50;99.90;;;;;;5029458;28;20224;-78
2022/04/23 01:36:14;;;;;;;38.10;33.95;;;11.50;99.90;;;;;;5031931;28;20306;-72
2022/04/23 01:38:44;;;;;;;34.80;30.80;;;11.50;99.90;;;;;;5026634;28;20303;-75
2022/04/23 01:41:11;;;;;;;28.80;25.85;;;11.50;99.90;;;;;;5031907;28;20219;-75
2022/04/23 01:43:38;;;;;;;28.52;25.52;;;11.50;99.90;;;;;;5029062;28;20262;-76
2022/04/23 01:46:05;;;;;;;26.65;24.02;;;11.50;99.90;;;;;;5030565;28;20736;-76
2022/04/23 01:48:33;;;;;;;25.15;22.55;;;11.50;99.90;;;;;;5030083;28;20230;-73
2022/04/23 01:51:00;;;;;;;27.63;24.73;;;11.50;99.90;;;;;;5032372;28;20195;-75
2022/04/23 01:53:29;;;;;;;27.85;25.05;;;11.50;99.90;;;;;;5030611;28;20226;-77
2022/04/23 01:55:57;;;;;;;26.40;23.73;;;11.50;99.90;;;;;;5029510;28;20265;-73
2022/04/23 01:58:25;;;;;;;25.92;23.23;;;11.50;99.90;;;;;;5034007;28;20230;-73
2022/04/23 02:00:53;;;;;;;28.55;25.50;;;11.50;99.90;;;;;;5032079;28;20211;-76
2022/04/23 02:03:22;;;;;;;29.63;26.52;;;11.50;99.90;;;;;;5028373;28;20227;-77
2022/04/23 02:05:49;;;;;;;29.13;26.02;;;11.40;99.90;;;;;;5032084;28;20207;-74
2022/04/23 02:08:17;;;;;;;33.75;30.10;;;11.40;99.90;;;;;;5031186;28;20223;-77
2022/04/23 02:10:45;;;;;;;32.75;29.25;;;11.40;99.90;;;;;;5033677;28;20678;-77
2022/04/23 02:13:14;;;;;;;31.48;28.08;;;11.40;99.90;;;;;;5031320;28;20234;-75
2022/04/23 02:15:41;;;;;;;33.17;29.65;;;11.40;99.90;;;;;;5032781;28;20200;-75
2022/04/23 02:18:09;;;;;;;29.30;26.20;;;11.30;99.90;;;;;;5030621;28;20659;-77
2022/04/23 02:20:36;;;;;;;33.00;29.48;;;11.30;99.90;;;;;;5030462;28;20224;-74
2022/04/23 02:23:04;;;;;;;35.92;32.08;;;11.30;99.90;;;;;;5030765;28;20224;-72
2022/04/23 02:25:34;;;;;;;37.20;32.70;;;11.30;99.90;;;;;;5032621;28;20203;-77
2022/04/23 02:28:01;;;;;;;30.80;27.65;;;11.30;99.90;;;;;;5029025;28;20591;-77
2022/04/23 02:30:30;;;;;;;32.35;28.90;;;11.30;99.90;;;;;;5025046;28;20230;-77
2022/04/23 02:32:57;;;;;;;30.25;27.02;;;11.20;99.90;;;;;;5028807;28;20643;-74
2022/04/23 02:35:24;;;;;;;26.05;23.30;;;11.30;99.90;;;;;;5034837;28;20207;-76
2022/04/23 02:37:55;;;;;;;25.90;22.70;;;11.30;99.90;;;;;;5027975;28;20228;-74
2022/04/23 02:40:22;;;;;;;24.77;22.13;;;11.30;99.90;;;;;;5028326;28;20269;-73
2022/04/23 02:42:50;;;;;;;26.88;23.95;;;11.40;99.90;;;;;;5029625;28;20227;-74
2022/04/23 02:45:20;;;;;;;32.45;28.95;;;11.40;99.90;;;;;;5029191;28;20203;-73
2022/04/23 02:47:50;;;;;;;27.90;24.98;;;11.40;99.90;;;;;;5030421;28;20306;-77
2022/04/23 02:50:26;;;;;;;35.95;32.05;;;11.40;99.90;;;;;;5032316;28;20227;-76
2022/04/23 02:52:53;;;;;;;31.77;28.48;;;11.40;99.90;;;;;;5033894;28;20239;-75
2022/04/23 02:55:21;;;;;;;30.08;26.52;;;11.30;99.90;;;;;;5032939;28;20238;-75
2022/04/23 02:57:48;;;;;;;32.28;28.77;;;11.30;99.90;;;;;;5031940;28;20580;-74
2022/04/23 03:00:15;;;;;;;33.22;28.75;;;11.30;99.90;;;;;;5035687;28;20200;-78
2022/04/23 03:02:44;;;;;;;33.08;28.75;;;11.30;99.90;;;;;;5032903;28;20273;-74
2022/04/23 03:05:14;;;;;;;29.10;26.05;;;11.30;99.90;;;;;;5034212;28;20202;-75
2022/04/23 03:07:42;;;;;;;26.58;23.85;;;11.30;99.90;;;;;;5032220;28;20346;-75
2022/04/23 03:10:12;;;;;;;26.00;22.98;;;11.30;99.90;;;;;;5032307;28;20203;-75
2022/04/23 03:12:39;;;;;;;25.40;22.80;;;11.20;99.90;;;;;;5031889;28;20227;-73
2022/04/23 03:15:07;;;;;;;26.73;23.98;;;11.30;99.90;;;;;;5030846;28;20699;-76
2022/04/23 03:17:35;;;;;;;26.25;23.45;;;11.30;99.90;;;;;;5031022;28;20231;-75
2022/04/23 03:20:02;;;;;;;26.85;24.15;;;11.30;99.90;;;;;;5031597;28;20200;-73
2022/04/23 03:22:30;;;;;;;25.55;22.80;;;11.40;99.90;;;;;;5026340;28;20231;-73
2022/04/23 03:24:57;;;;;;;27.90;25.00;;;11.30;99.90;;;;;;5025079;28;21987;-74
2022/04/23 03:27:24;;;;;;;27.00;24.20;;;11.30;99.90;;;;;;5026952;28;20611;-74
2022/04/23 03:29:51;;;;;;;26.92;24.13;;;11.30;99.90;;;;;;5028377;28;20200;-75
2022/04/23 03:32:19;;;;;;;26.45;23.58;;;11.20;99.90;;;;;;5029698;28;20220;-73
2022/04/23 03:34:46;;;;;;;26.90;24.02;;;11.20;99.90;;;;;;5033654;28;20196;-76
2022/04/23 03:37:13;;;;;;;26.73;23.92;;;11.20;99.90;;;;;;5032817;28;20192;-72
2022/04/23 03:39:42;;;;;;;24.75;22.15;;;11.20;99.90;;;;;;5031819;28;20662;-74
2022/04/23 03:42:09;;;;;;;24.35;21.75;;;11.30;99.90;;;;;;5029838;28;20219;-74
2022/04/23 03:44:36;;;;;;;28.38;25.38;;;11.30;99.90;;;;;;5035189;28;20234;-75
2022/04/23 03:47:04;;;;;;;26.40;23.30;;;11.30;99.90;;;;;;5032485;28;20231;-74
2022/04/23 03:49:31;;;;;;;31.83;28.52;;;11.30;99.90;;;;;;5031661;28;20215;-74
2022/04/23 03:51:59;;;;;;;29.50;26.33;;;11.30;99.90;;;;;;5033310;28;20228;-77
2022/04/23 03:54:27;;;;;;;36.42;32.47;;;11.30;99.90;;;;;;5052101;23;20267;-76
2022/04/23 03:56:55;;;;;;;38.47;34.25;;;11.30;99.90;;;;;;5014504;28;20200;-76
2022/04/23 03:59:23;;;;;;;40.42;35.88;;;11.30;99.90;;;;;;5022495;28;20261;-75
2022/04/23 04:01:53;;;;;;;39.30;34.28;;;11.20;99.90;;;;;;5026874;28;20208;-77
2022/04/23 04:04:20;;;;;;;33.00;29.50;;;11.20;99.90;;;;;;5018811;28;20232;-76
2022/04/23 04:06:47;;;;;;;36.70;32.75;;;11.20;99.90;;;;;;5003264;28;20243;-77
2022/04/23 04:09:14;;;;;;;31.23;27.90;;;11.20;99.90;;;;;;5005333;28;20220;-77
2022/04/23 04:14:27;;;;;;;28.38;25.30;;;11.20;99.90;;;;;;5003168;28;20239;-77
2022/04/23 04:16:55;;;;;;;30.02;26.83;;;11.20;99.90;;;;;;5000356;28;20616;-77
2022/04/23 04:19:22;;;;;;;31.77;28.05;;;11.20;99.90;;;;;;5002025;28;20224;-77
2022/04/23 04:21:49;;;;;;;30.48;27.27;;;11.20;99.90;;;;;;5006306;28;20200;-77
2022/04/23 04:24:17;;;;;;;35.78;31.80;;;11.10;99.90;;;;;;5004047;28;20228;-76
2022/04/23 04:26:45;;;;;;;32.17;28.77;;;11.20;99.90;;;;;;5002428;28;20322;-75
2022/04/23 04:29:12;;;;;;;31.02;27.60;;;11.10;99.90;;;;;;5003091;28;20219;-75
2022/04/23 04:31:51;;;;;;;29.83;25.75;;;11.20;99.90;;;;;;5005991;28;20200;-77
2022/04/23 04:34:20;;;;;;;26.73;23.88;;;11.20;99.90;;;;;;5001343;28;20354;-76
2022/04/23 04:36:49;;;;;;;27.73;24.73;;;11.20;99.90;;;;;;5004393;28;20643;-77
2022/04/23 04:39:16;;;;;;;27.38;24.45;;;11.20;99.90;;;;;;5002578;28;20278;-77
2022/04/23 04:41:44;;;;;;;26.98;24.08;;;11.20;99.90;;;;;;5005644;28;20223;-76
2022/04/23 04:44:11;;;;;;;28.25;25.25;;;11.20;99.90;;;;;;4999705;28;20290;-77
2022/04/23 04:46:40;;;;;;;27.30;24.40;;;11.20;99.90;;;;;;4997800;28;20259;-77
2022/04/23 04:49:07;;;;;;;25.55;22.83;;;11.20;99.90;;;;;;5001410;28;20278;-77
2022/04/23 04:51:36;;;;;;;25.63;22.95;;;11.20;99.90;;;;;;5004824;28;20287;-76
2022/04/23 04:54:03;;;;;;;25.75;23.15;;;11.20;99.90;;;;;;5005367;28;20431;-77
2022/04/23 04:56:31;;;;;;;27.30;24.50;;;11.20;99.90;;;;;;5004566;28;20295;-76
2022/04/23 04:58:58;;;;;;;28.15;25.15;;;11.20;99.90;;;;;;5002485;28;20228;-75
2022/04/23 05:01:25;;;;;;;31.90;28.50;;;11.30;99.90;;;;;;5001184;28;20197;-76
2022/04/23 05:03:53;;;;;;;29.88;26.55;;;11.30;99.90;;;;;;5002415;28;20228;-77
2022/04/23 05:06:21;;;;;;;28.38;25.48;;;11.30;99.90;;;;;;5008637;28;20209;-77
2022/04/23 05:08:48;;;;;;;28.27;25.35;;;11.30;99.90;;;;;;5007110;28;20215;-76
2022/04/23 05:11:15;;;;;;;28.38;25.42;;;11.30;99.90;;;;;;5007643;28;20200;-77
2022/04/23 05:13:42;;;;;;;29.83;26.67;;;11.40;99.90;;;;;;5004965;28;20286;-77
2022/04/23 05:16:09;;;;;;;30.27;27.05;;;11.40;99.90;;;;;;5000255;28;20645;-77
2022/04/23 05:18:36;;;;;;;31.95;28.60;;;11.40;99.90;;;;;;5003355;28;20900;-77
2022/04/23 05:21:05;;;;;;;29.92;26.77;;;11.40;99.90;;;;;;5004188;28;21623;-77
2022/04/23 05:23:32;;;;;;;30.45;27.10;;;11.40;99.90;;;;;;4999005;28;20228;-76
2022/04/23 05:26:00;;;;;;;34.55;29.55;;;11.40;99.90;;;;;;5002791;28;20754;-77
2022/04/23 05:28:27;;;;;;;29.77;26.67;;;11.40;99.90;;;;;;5004565;28;20228;-77
2022/04/23 05:30:54;;;;;;;32.10;28.63;;;11.40;99.90;;;;;;5007692;28;20200;-77
2022/04/23 05:33:21;;;;;;;33.47;29.88;;;11.30;99.90;;;;;;5003717;28;21445;-77
2022/04/23 05:35:48;;;;;;;32.90;29.42;;;11.30;99.90;;;;;;5008598;28;20216;-77
2022/04/23 05:38:19;;;;;;;31.35;28.02;;;11.40;99.90;;;;;;5007766;28;20220;-77
2022/04/23 05:40:47;;;;;;;31.52;28.00;;;11.40;99.90;;;;;;5008956;28;20195;-78
2022/04/23 05:43:14;;;;;;;35.30;31.35;;;11.40;99.90;;;;;;5003480;28;20219;-76
2022/04/23 05:45:41;;;;;;;39.17;34.97;;;11.30;99.90;;;;;;5007472;28;20278;-77
2022/04/23 05:48:08;;;;;;;37.00;33.00;;;11.30;99.90;;;;;;5007296;28;20239;-77
2022/04/23 05:50:35;;;;;;;35.08;31.38;;;11.30;99.90;;;;;;5009524;28;20437;-77
2022/04/23 05:53:03;;;;;;;34.20;30.60;;;11.40;99.90;;;;;;5003401;28;20285;-75
2022/04/23 05:55:31;;;;;;;31.25;27.92;;;11.40;99.90;;;;;;5008208;28;20232;-77
2022/04/23 05:57:58;;;;;;;29.55;26.42;;;11.50;99.90;;;;;;5006172;28;20231;-76
2022/04/23 06:00:25;;;;;;;30.60;27.38;;;11.50;99.90;;;;;;5006682;28;20207;-77
2022/04/23 06:02:52;;;;;;;34.35;30.70;;;11.50;99.90;;;;;;5003032;28;20663;-77
2022/04/23 06:05:19;;;;;;;31.98;28.63;;;11.50;99.90;;;;;;5004455;28;20225;-76
2022/04/23 06:07:46;;;;;;;34.40;30.80;;;11.50;99.90;;;;;;5006968;28;20228;-76
2022/04/23 06:10:13;;;;;;;33.75;30.20;;;11.50;99.90;;;;;;5008766;28;20208;-77
2022/04/23 06:12:42;;;;;;;37.58;33.53;;;11.50;99.90;;;;;;5005951;28;20271;-76
2022/04/23 06:15:09;;;;;;;34.75;31.13;;;11.50;99.90;;;;;;5010005;28;20278;-77
2022/04/23 06:17:36;;;;;;;49.28;43.95;;;11.40;99.90;;;;;;5010523;28;20188;-76
2022/04/23 06:20:05;;;;;;;50.42;44.20;;;11.30;99.90;;;;;;5004242;28;20255;-77
2022/04/23 06:22:32;;;;;;;44.50;39.67;;;11.20;99.90;;;;;;5009637;28;20204;-76
2022/04/23 06:24:59;;;;;;;38.88;34.67;;;11.20;99.90;;;;;;5009928;28;20240;-76
2022/04/23 06:27:26;;;;;;;50.88;44.00;;;11.20;99.90;;;;;;5011362;28;20740;-77
2022/04/23 06:29:54;;;;;;;42.33;37.92;;;11.20;99.90;;;;;;5008161;28;20220;-77
2022/04/23 06:32:22;;;;;;;40.97;35.53;;;11.20;99.90;;;;;;5007747;28;20206;-76
2022/04/23 06:34:49;;;;;;;38.53;34.05;;;11.20;99.90;;;;;;5009980;28;20230;-78
2022/04/23 06:37:18;;;;;;;31.58;28.30;;;11.20;99.90;;;;;;5009820;28;20651;-77
2022/04/23 06:39:45;;;;;;;31.50;28.30;;;11.30;99.90;;;;;;5006850;28;20662;-76
2022/04/23 06:42:12;;;;;;;28.55;25.63;;;11.40;99.90;;;;;;5006742;28;20208;-78
2022/04/23 06:44:40;;;;;;;29.13;26.13;;;11.40;99.90;;;;;;5005967;28;20228;-77
2022/04/23 06:47:08;;;;;;;34.45;30.55;;;11.50;99.90;;;;;;5011246;28;20613;-78
2022/04/23 06:49:35;;;;;;;33.33;29.80;;;11.50;99.90;;;;;;5009986;28;20683;-78
2022/04/23 06:52:02;;;;;;;37.33;33.30;;;11.50;99.90;;;;;;5011533;28;20262;-77
2022/04/23 06:54:29;;;;;;;35.08;30.73;;;11.40;99.90;;;;;;5003465;28;20228;-77
2022/04/23 06:56:56;;;;;;;41.20;36.15;;;11.40;99.90;;;;;;5005695;28;20200;-77
2022/04/23 06:59:23;;;;;;;38.47;34.35;;;11.40;99.90;;;;;;5002849;28;20635;-79
2022/04/23 07:01:50;;;;;;;44.67;38.22;;;11.30;99.90;;;;;;5001407;28;20204;-77
2022/04/23 07:04:19;;;;;;;35.83;31.92;;;11.30;99.90;;;;;;5006680;28;20593;-78
2022/04/23 07:06:46;;;;;;;39.60;35.30;;;11.30;99.90;;;;;;5007918;28;20643;-78
2022/04/23 07:09:13;;;;;;;36.33;32.38;;;11.30;99.90;;;;;;5003648;28;20228;-78
2022/04/23 07:11:40;;;;;;;38.17;32.13;;;11.30;99.90;;;;;;5010545;28;20255;-78
2022/04/23 07:14:07;;;;;;;36.05;32.15;;;11.30;99.90;;;;;;5003583;28;20232;-78
2022/04/23 07:16:34;;;;;;;41.13;36.13;;;11.30;99.90;;;;;;5009278;28;20200;-78
2022/04/23 07:19:01;;;;;;;41.63;37.17;;;11.30;99.90;;;;;;5005576;28;20299;-78
2022/04/23 07:21:30;;;;;;;36.88;32.88;;;11.30;99.90;;;;;;4998388;28;20274;-78
2022/04/23 07:24:11;;;;;;;32.70;29.20;;;11.30;99.90;;;;;;5004868;28;20231;-77
2022/04/23 07:26:40;;;;;;;29.80;26.55;;;11.40;99.90;;;;;;5002640;28;20208;-75
2022/04/23 07:29:10;;;;;;;34.20;30.33;;;11.50;99.90;;;;;;4993819;28;20224;-77
2022/04/23 07:31:38;;;;;;;32.00;27.85;;;11.60;99.90;;;;;;4998496;28;20204;-76
2022/04/23 07:39:36;;;;;;;31.73;28.33;;;11.90;99.90;;;;;;5004676;28;20231;-76
2022/04/23 07:42:05;;;;;;;39.35;34.38;;;12.00;99.90;;;;;;5001929;28;20856;-77
2022/04/23 07:44:32;;;;;;;46.42;40.70;;;12.00;99.90;;;;;;4998549;28;20228;-77
2022/04/23 07:46:59;;;;;;;43.80;39.10;;;12.00;99.90;;;;;;5003011;28;20258;-76
2022/04/23 07:49:27;;;;;;;40.15;35.75;;;11.90;99.90;;;;;;5002554;28;20239;-76
2022/04/23 07:51:55;;;;;;;45.95;40.75;;;11.90;99.90;;;;;;5002014;28;20200;-77
2022/04/23 07:54:23;;;;;;;43.92;38.58;;;11.90;99.90;;;;;;5004667;28;20224;-76
2022/04/23 07:56:50;;;;;;;43.55;38.40;;;11.80;99.90;;;;;;5006171;28;20250;-77
2022/04/23 07:59:17;;;;;;;39.28;34.97;;;11.90;99.90;;;;;;5005549;28;20295;-78
2022/04/23 08:01:44;;;;;;;43.45;38.72;;;11.90;99.90;;;;;;5002862;28;20197;-77
2022/04/23 08:04:11;;;;;;;44.10;38.60;;;11.90;99.90;;;;;;5004082;28;20263;-76
2022/04/23 08:06:38;;;;;;;39.30;34.53;;;11.90;99.90;;;;;;5004855;28;20255;-77
2022/04/23 08:09:06;;;;;;;35.22;31.42;;;11.90;99.90;;;;;;5001806;28;20220;-77
2022/04/23 08:11:34;;;;;;;31.85;28.33;;;11.90;99.90;;;;;;5001725;28;20547;-78
2022/04/23 08:14:02;;;;;;;37.55;33.47;;;12.10;99.90;;;;;;5002109;28;20722;-77
2022/04/23 08:16:29;;;;;;;37.63;32.05;;;12.10;99.90;;;;;;5002372;28;20212;-76
2022/04/23 08:18:56;;;;;;;33.67;30.10;;;12.10;99.90;;;;;;5002040;28;20216;-77
2022/04/23 08:21:24;;;;;;;38.40;33.35;;;12.00;99.90;;;;;;5003395;28;20228;-77
2022/04/23 08:23:51;;;;;;;32.28;26.20;;;12.10;99.90;;;;;;5005292;28;20216;-77
2022/04/23 08:26:19;;;;;;;28.38;25.40;;;12.20;99.90;;;;;;4996164;28;20204;-77
2022/04/23 08:31:30;;;;;;;20.88;18.10;;;12.20;99.90;;;;;;5003660;28;20690;-76
2022/04/23 08:34:00;;;;;;;21.88;19.58;;;12.40;99.90;;;;;;5003964;28;20326;-77
2022/04/23 08:36:29;;;;;;;25.08;22.45;;;12.60;99.90;;;;;;5000192;28;20254;-77
2022/04/23 08:38:58;;;;;;;34.45;30.75;;;12.60;99.90;;;;;;5005015;28;20805;-77
2022/04/23 08:41:29;;;;;;;43.50;38.58;;;12.50;99.90;;;;;;5003809;28;20196;-77
2022/04/23 08:44:05;;;;;;;35.40;31.55;;;12.40;99.90;;;;;;4997698;28;20289;-77
2022/04/23 08:46:33;;;;;;;33.25;29.73;;;12.30;99.90;;;;;;5003899;28;21836;-78
2022/04/23 08:49:08;;;;;;;35.65;31.77;;;12.30;99.90;;;;;;5004761;28;20219;-77
2022/04/23 08:51:36;;;;;;;36.83;32.88;;;12.30;99.90;;;;;;5002772;28;20526;-75
2022/04/23 08:54:07;;;;;;;38.95;34.10;;;12.40;99.90;;;;;;5000622;28;21819;-76
2022/04/23 08:56:37;;;;;;;39.38;35.15;;;12.50;99.90;;;;;;5000869;28;20211;-77
2022/04/23 08:59:06;;;;;;;36.00;32.00;;;12.60;99.90;;;;;;4999862;28;20575;-77
2022/04/23 09:01:34;;;;;;;38.47;33.83;;;12.60;99.90;;;;;;4996591;28;20204;-78
2022/04/23 09:04:02;;;;;;;35.13;31.45;;;12.70;99.90;;;;;;5000896;28;20281;-77
2022/04/23 09:06:43;;;;;;;36.38;32.55;;;12.90;99.90;;;;;;5002093;28;20200;-77
2022/04/23 09:09:15;;;;;;;35.35;31.70;;;13.00;99.90;;;;;;5002300;28;20570;-78
2022/04/23 09:11:46;;;;;;;32.45;29.05;;;13.20;99.90;;;;;;4996724;28;20283;-78
2022/04/23 09:14:25;;;;;;;29.98;26.88;;;13.30;99.90;;;;;;4998912;28;20282;-78
2022/04/23 09:25:16;;;;;;;29.30;26.15;;;13.40;99.90;;;;;;4999514;28;20705;-77
2022/04/23 09:27:44;;;;;;;25.13;22.52;;;13.50;99.90;;;;;;5003401;28;20235;-78
2022/04/23 09:30:13;;;;;;;24.88;22.27;;;13.70;99.90;;;;;;5003946;28;20220;-77
2022/04/23 09:32:56;;;;;;;30.70;27.50;;;13.90;99.90;;;;;;5003818;28;20557;-78
2022/04/23 09:35:24;;;;;;;36.00;32.20;;;14.10;99.90;;;;;;5002541;28;20224;-78
2022/04/23 09:40:35;;;;;;;30.65;27.50;;;14.10;99.90;;;;;;5003117;28;20230;-79
2022/04/23 09:43:05;;;;;;;34.22;30.63;;;14.10;99.90;;;;;;5006406;28;20513;-77
2022/04/23 09:45:34;;;;;;;33.15;29.65;;;14.20;99.90;;;;;;5006017;28;21194;-77
2022/04/23 09:48:18;;;;;;;29.73;26.60;;;14.30;99.90;;;;;;5006071;28;20283;-77
2022/04/23 09:50:47;;;;;;;26.13;23.38;;;14.50;99.90;;;;;;5007429;28;20329;-78
2022/04/23 09:53:15;;;;;;;26.75;24.02;;;14.70;99.90;;;;;;5009761;28;20254;-79
2022/04/23 09:55:43;;;;;;;26.77;24.08;;;15.10;99.90;;;;;;5053968;23;20697;-77
2022/04/23 09:58:13;;;;;;;26.50;23.83;;;15.40;99.90;;;;;;5037804;28;20747;-76
2022/04/23 10:00:41;;;;;;;17.75;16.05;;;15.50;99.90;;;;;;5029983;28;20767;-77
2022/04/23 10:03:10;;;;;;;24.30;21.80;;;15.60;99.90;;;;;;5037640;28;20207;-77
2022/04/23 10:05:39;;;;;;;15.57;13.98;;;15.70;99.90;;;;;;5033818;28;20242;-78
2022/04/23 10:08:12;;;;;;;14.05;12.63;;;15.60;99.90;;;;;;5036383;28;20282;-75
2022/04/23 10:10:44;;;;;;;16.65;14.85;;;15.70;99.90;;;;;;5038683;28;20207;-75
2022/04/23 10:13:13;;;;;;;16.85;14.60;;;15.70;99.90;;;;;;5033185;28;20278;-77
2022/04/23 10:15:46;;;;;;;17.13;15.38;;;15.70;99.90;;;;;;5037245;28;20310;-78
2022/04/23 10:18:14;;;;;;;15.93;14.43;;;15.70;99.90;;;;;;5036294;28;20203;-75
2022/04/23 10:20:52;;;;;;;15.88;14.27;;;15.70;99.90;;;;;;5038238;28;20226;-77
2022/04/23 10:23:42;;;;;;;14.50;13.00;;;15.80;99.90;;;;;;5036292;28;20421;-79
2022/04/23 10:26:24;;;;;;;15.10;13.60;;;15.90;99.90;;;;;;5036587;28;20231;-79
2022/04/23 10:28:53;;;;;;;12.85;11.48;;;16.10;99.90;;;;;;5035094;28;20292;-77
2022/04/23 10:31:20;;;;;;;12.77;11.43;;;16.40;99.90;;;;;;5032331;28;20199;-78
2022/04/23 10:33:50;;;;;;;12.70;11.50;;;16.70;99.90;;;;;;5033253;28;20199;-76
2022/04/23 10:36:17;;;;;;;17.38;15.57;;;17.40;99.90;;;;;;5034113;28;20215;-78
2022/04/23 10:38:51;;;;;;;15.75;14.20;;;18.00;99.90;;;;;;5037740;28;20203;-78
2022/04/23 10:41:20;;;;;;;16.98;15.38;;;18.40;99.90;;;;;;5030816;28;20224;-78
2022/04/23 10:43:48;;;;;;;15.90;14.30;;;18.60;99.90;;;;;;5031425;28;20210;-79
2022/04/23 10:46:47;;;;;;;11.23;10.00;;;18.50;99.90;;;;;;5031225;28;20223;-75
2022/04/23 10:49:17;;;;;;;10.73;9.73;;;18.10;99.90;;;;;;5032561;28;20633;-76
2022/04/23 10:51:49;;;;;;;11.07;9.98;;;17.60;99.90;;;;;;5038034;28;20207;-80
2022/04/23 10:54:19;;;;;;;11.27;10.15;;;17.30;99.90;;;;;;5038411;28;20272;-77
2022/04/23 10:56:50;;;;;;;15.65;11.85;;;17.20;99.90;;;;;;5038451;28;20199;-81
2022/04/23 10:59:38;;;;;;;12.40;11.10;;;17.10;99.90;;;;;;5036946;28;20745;-81
2022/04/23 11:02:29;;;;;;;12.30;11.10;;;17.30;99.90;;;;;;5036337;28;20329;-82
2022/04/23 11:13:27;;;;;;;11.48;10.35;;;17.40;99.90;;;;;;5034503;28;20248;-78
2022/04/23 11:16:12;;;;;;;10.88;9.77;;;17.90;99.90;;;;;;5039896;28;20292;-78
2022/04/23 11:18:41;;;;;;;10.82;9.50;;;17.80;99.90;;;;;;5036512;28;20195;-80
2022/04/23 11:21:15;;;;;;;10.82;8.05;;;17.70;99.90;;;;;;5038593;28;20229;-78
2022/04/23 11:23:45;;;;;;;10.27;9.02;;;17.40;99.90;;;;;;5041040;28;20279;-80
2022/04/23 11:26:15;;;;;;;8.50;7.70;;;17.10;99.90;;;;;;5042085;28;20231;-83
2022/04/23 11:28:43;;;;;;;11.50;10.48;;;17.00;99.90;;;;;;5041300;28;20195;-82
2022/04/23 11:31:15;;;;;;;12.95;10.25;;;17.00;99.90;;;;;;5036239;28;20302;-82
2022/04/23 11:33:54;;;;;;;11.52;10.38;;;17.30;99.90;;;;;;5036768;28;20276;-77
2022/04/23 11:36:26;;;;;;;12.27;11.07;;;17.80;99.90;;;;;;5034705;28;20230;-75
2022/04/23 11:38:53;;;;;;;14.52;10.73;;;18.20;99.90;;;;;;5033651;28;20721;-76
2022/04/23 11:41:31;;;;;;;10.75;9.45;;;18.50;99.90;;;;;;5036257;28;20219;-82
2022/04/23 11:44:14;;;;;;;11.80;10.70;;;19.00;99.90;;;;;;5032903;28;20346;-76
2022/04/23 11:46:42;;;;;;;9.57;8.68;;;18.90;99.90;;;;;;5035673;28;20226;-79
2022/04/23 11:49:11;;;;;;;10.52;9.38;;;19.00;99.90;;;;;;5038752;28;20610;-80
2022/04/23 11:51:41;;;;;;;11.05;10.05;;;19.00;99.90;;;;;;5033907;28;20223;-84
2022/04/23 11:54:08;;;;;;;11.75;9.68;;;18.40;99.90;;;;;;5031185;28;20283;-80
2022/04/23 11:56:36;;;;;;;11.13;9.32;;;18.30;99.90;;;;;;5035278;28;20229;-82
2022/04/23 11:59:06;;;;;;;8.93;8.13;;;18.50;99.90;;;;;;5033451;28;20573;-77
2022/04/23 12:01:34;;;;;;;9.82;8.57;;;18.80;99.90;;;;;;5021040;28;20222;-83
2022/04/23 12:04:01;;;;;;;8.48;7.65;;;18.90;99.90;;;;;;5030542;28;20211;-81
2022/04/23 12:06:42;;;;;;;8.15;7.35;;;18.80;99.90;;;;;;5033730;28;20227;-82
2022/04/23 12:09:11;;;;;;;7.13;6.43;;;18.70;99.90;;;;;;5036205;28;20223;-80
2022/04/23 12:11:40;;;;;;;7.80;7.03;;;18.90;99.90;;;;;;5030840;28;20638;-78
2022/04/23 12:14:08;;;;;;;7.10;6.40;;;19.20;99.90;;;;;;5033231;28;20639;-79
2022/04/23 12:16:37;;;;;;;6.78;5.88;;;19.10;99.90;;;;;;5029776;28;20223;-79
2022/04/23 12:19:06;;;;;;;8.43;6.50;;;19.10;99.90;;;;;;5035274;28;20229;-80
2022/04/23 12:21:35;;;;;;;6.97;6.38;;;19.10;99.90;;;;;;5034925;28;20227;-79
2022/04/23 12:24:03;;;;;;;10.88;6.78;;;19.00;99.90;;;;;;5033789;28;20645;-78
2022/04/23 12:26:35;;;;;;;7.75;7.03;;;18.90;99.90;;;;;;5033795;28;20223;-79
2022/04/23 12:43:34;;;;;;;6.65;5.97;;;18.50;99.90;;;;;;5045956;28;20248;-79
2022/04/23 12:46:06;;;;;;;7.05;6.38;;;18.20;99.90;;;;;;4978272;28;20228;-77
2022/04/23 12:48:35;;;;;;;8.30;5.80;;;18.20;99.90;;;;;;4981884;28;20291;-79
2022/04/23 12:51:06;;;;;;;7.70;6.70;;;17.60;99.90;;;;;;5012621;28;20238;-80
2022/04/23 12:53:37;;;;;;;7.10;6.00;;;17.30;99.90;;;;;;5054320;28;20199;-83
2022/04/23 12:56:08;;;;;;;8.10;5.82;;;17.10;99.90;;;;;;5040473;28;20701;-81
2022/04/23 12:58:35;;;;;;;5.93;5.43;;;17.10;99.90;;;;;;5038994;28;20258;-78
2022/04/23 13:01:02;;;;;;;6.45;5.53;;;16.90;99.90;;;;;;5035023;28;20230;-79
2022/04/23 13:03:35;;;;;;;6.47;5.85;;;17.20;99.90;;;;;;5042317;28;20215;-78
2022/04/23 13:06:04;;;;;;;6.18;5.57;;;17.40;99.90;;;;;;5039292;28;20227;-80
2022/04/23 13:11:27;;;;;;;7.88;5.78;;;17.10;99.90;;;;;;5036833;28;20228;-79
2022/04/23 13:13:55;;;;;;;5.47;4.97;;;16.80;99.90;;;;;;5034257;28;20218;-76
2022/04/23 13:16:24;;;;;;;7.25;5.47;;;16.60;99.90;;;;;;5033585;28;20302;-75
2022/04/23 13:18:54;;;;;;;7.78;4.93;;;16.60;99.90;;;;;;5036593;28;20330;-77
2022/04/23 13:21:21;;;;;;;5.15;4.15;;;16.50;99.90;;;;;;5038404;28;20769;-76
2022/04/23 13:23:49;;;;;;;4.47;4.07;;;16.70;99.90;;;;;;5040671;28;20277;-76
2022/04/23 13:26:18;;;;;;;5.00;4.05;;;16.70;99.90;;;;;;5038922;28;20763;-76
2022/04/23 13:28:46;;;;;;;3.97;3.60;;;16.60;99.90;;;;;;5033657;28;20339;-77